Time;durP1;ratioP1;P1;durP2;ratioP2;P2;SDS_P1;SDS_P2;PMS_P1;PMS_P2;Temp;Humidity;BMP_temperature;BMP_pressure;BME280_temperature;BME280_humidity;BME280_pressure;Samples;Min_cycle;Max_cycle;Signal;HPM_P1;HPM_P2
2021/12/21 00:02:08;;;;;;;4.60;2.83;;;;;;;0.25;93.10;99424.38;4996205;28;20440;-58
2021/12/21 00:04:33;;;;;;;4.73;3.17;;;;;;;0.20;93.31;99435.09;4993765;28;20030;-58
2021/12/21 00:06:59;;;;;;;3.07;2.30;;;;;;;0.19;93.18;99438.41;4993301;28;20034;-56
2021/12/21 00:09:24;;;;;;;5.13;3.20;;;;;;;0.23;92.87;99437.72;4993105;28;20061;-57
2021/12/21 00:11:50;;;;;;;3.00;2.53;;;;;;;0.25;91.98;99444.56;4992773;28;20022;-58
2021/12/21 00:14:24;;;;;;;5.13;2.90;;;;;;;0.22;91.83;99438.53;4991015;28;20455;-57
2021/12/21 00:21:53;;;;;;;4.90;2.90;;;;;;;0.10;93.72;99444.00;4997146;28;20069;-59
2021/12/21 00:24:22;;;;;;;4.13;2.63;;;;;;;0.00;94.27;99440.28;4986609;28;20030;-61
2021/12/21 00:26:48;;;;;;;7.50;4.57;;;;;;;-0.05;94.48;99444.34;4991477;28;20034;-55
2021/12/21 00:29:13;;;;;;;4.53;2.63;;;;;;;0.03;94.08;99443.75;4993083;28;20132;-58
2021/12/21 00:31:40;;;;;;;4.27;2.73;;;;;;;0.09;93.36;99443.94;4992756;28;20392;-56
2021/12/21 00:34:08;;;;;;;4.63;2.80;;;;;;;-0.03;93.90;99444.38;4988707;28;20129;-58
2021/12/21 00:36:35;;;;;;;3.73;2.47;;;;;;;-0.03;93.95;99451.94;4997981;28;20029;-57
2021/12/21 00:39:06;;;;;;;3.63;2.40;;;;;;;-0.04;93.53;99440.97;4992171;28;20065;-57
2021/12/21 00:41:32;;;;;;;3.77;2.87;;;;;;;-0.02;92.24;99453.66;4993029;28;20026;-58
2021/12/21 00:43:58;;;;;;;4.43;2.90;;;;;;;-0.05;92.03;99449.38;4991440;28;20046;-57
2021/12/21 00:46:24;;;;;;;5.30;2.70;;;;;;;0.06;91.31;99454.78;4995083;28;20038;-58
2021/12/21 00:48:53;;;;;;;6.20;3.07;;;;;;;-0.08;92.41;99455.94;4992781;28;20026;-59
2021/12/21 00:51:21;;;;;;;4.13;2.63;;;;;;;-0.09;92.83;99456.75;4991004;28;20136;-56
2021/12/21 00:53:47;;;;;;;4.93;3.07;;;;;;;-0.15;93.88;99457.38;4988569;28;20038;-57
2021/12/21 00:56:13;;;;;;;3.93;2.67;;;;;;;-0.14;94.49;99460.78;4991362;28;20124;-56
2021/12/21 00:58:39;;;;;;;4.20;2.73;;;;;;;-0.23;95.54;99461.28;4993770;28;20040;-59
2021/12/21 01:01:06;;;;;;;4.73;2.90;;;;;;;-0.26;95.88;99471.28;4991433;28;20861;-58
2021/12/21 01:03:40;;;;;;;4.60;3.03;;;;;;;-0.21;94.72;99463.88;4990648;28;20982;-59
2021/12/21 01:06:15;;;;;;;4.40;2.57;;;;;;;-0.20;94.71;99466.44;4992360;28;20017;-57
2021/12/21 01:09:40;;;;;;;;;;;;;;;-0.24;95.31;99476.34;4992672;28;20026;-58
2021/12/21 01:11:36;;;;;;;4.10;2.70;;;;;;;-0.35;96.39;99468.41;4988046;28;20343;-59
2021/12/21 01:16:39;;;;;;;5.33;2.60;;;;;;;-0.43;97.18;99471.44;4993359;28;20033;-59
2021/12/21 01:19:22;;;;;;;4.20;2.38;;;;;;;-0.43;96.59;99473.94;4990711;28;20034;-59
2021/12/21 01:22:08;;;;;;;6.23;3.37;;;;;;;-0.41;96.71;99477.38;4988831;28;20869;-58
2021/12/21 01:27:15;;;;;;;5.30;3.10;;;;;;;-0.50;96.75;99470.31;4991896;28;20066;-59
2021/12/21 01:35:01;;;;;;;5.27;2.70;;;;;;;-0.58;97.40;99469.19;4995502;28;20026;-58
2021/12/21 01:38:19;;;;;;;;;;;;;;;-0.55;97.22;99480.22;4994789;28;20128;-56
2021/12/21 01:43:18;;;;;;;4.13;2.50;;;;;;;-0.67;97.73;99468.81;4991900;28;20065;-58
2021/12/21 01:51:13;;;;;;;4.87;2.63;;;;;;;-0.52;96.48;99462.72;4994853;28;20107;-58
2021/12/21 01:53:40;;;;;;;4.50;2.67;;;;;;;-0.51;96.75;99466.13;4994573;28;20088;-57
2021/12/21 01:56:06;;;;;;;4.83;3.30;;;;;;;-0.49;97.13;99459.47;4994661;28;20022;-59
2021/12/21 01:58:33;;;;;;;5.70;3.10;;;;;;;-0.53;97.77;99450.94;4991573;28;20038;-58
2021/12/21 02:01:03;;;;;;;5.00;2.63;;;;;;;-0.50;97.81;99461.13;4992852;28;20036;-58
2021/12/21 02:03:28;;;;;;;6.93;3.77;;;;;;;-0.49;97.60;99459.47;4981646;28;20061;-56
2021/12/21 02:05:54;;;;;;;3.57;2.40;;;;;;;-0.53;98.26;99458.50;4997894;28;20441;-55
2021/12/21 02:08:19;;;;;;;3.20;2.23;;;;;;;-0.61;99.55;99464.03;4989929;28;20124;-58
2021/12/21 02:10:45;;;;;;;3.87;2.53;;;;;;;-0.67;100.00;99462.13;4997056;28;20038;-55
2021/12/21 02:13:10;;;;;;;3.97;2.83;;;;;;;-0.67;100.00;99457.09;4997873;28;20046;-59
2021/12/21 02:15:35;;;;;;;3.90;2.67;;;;;;;-0.73;100.00;99463.56;4996529;28;20030;-57
2021/12/21 02:18:29;;;;;;;5.67;3.17;;;;;;;-0.77;100.00;99466.75;4995214;28;20649;-58
2021/12/21 02:21:05;;;;;;;4.73;3.93;;;;;;;-0.86;100.00;99461.38;4993314;28;20675;-58
2021/12/21 02:23:36;;;;;;;9.40;4.63;;;;;;;-0.89;100.00;99457.06;4995308;28;20076;-58
2021/12/21 02:26:17;;;;;;;7.07;3.20;;;;;;;-0.87;100.00;99467.19;4991743;28;20492;-59
2021/12/21 02:31:09;;;;;;;5.80;2.67;;;;;;;-0.96;100.00;99457.63;4998714;28;20129;-55
2021/12/21 02:33:35;;;;;;;4.90;2.80;;;;;;;-0.92;100.00;99455.28;4997307;28;20116;-57
2021/12/21 02:36:02;;;;;;;5.23;3.33;;;;;;;-0.92;100.00;99450.25;4990746;28;20034;-58
2021/12/21 02:38:27;;;;;;;4.93;2.80;;;;;;;-0.97;100.00;99454.25;4976138;28;20123;-56
2021/12/21 02:40:53;;;;;;;7.17;3.67;;;;;;;-1.00;100.00;99451.63;4993908;28;20504;-56
2021/12/21 02:43:19;;;;;;;4.87;3.07;;;;;;;-0.96;100.00;99461.00;4994157;28;20030;-56
2021/12/21 02:45:45;;;;;;;5.27;3.17;;;;;;;-0.89;100.00;99457.06;4991389;28;20038;-57
2021/12/21 02:48:10;;;;;;;3.63;2.37;;;;;;;-0.84;100.00;99458.09;4991965;28;20026;-57
2021/12/21 02:50:38;;;;;;;5.13;3.13;;;;;;;-0.73;100.00;99451.84;5000382;28;20114;-59
2021/12/21 02:53:04;;;;;;;8.20;4.03;;;;;;;-0.73;100.00;99464.44;4999852;28;20034;-58
2021/12/21 02:55:29;;;;;;;5.60;3.30;;;;;;;-0.74;100.00;99462.72;4988545;28;20061;-57
2021/12/21 02:57:57;;;;;;;6.00;3.27;;;;;;;-0.74;100.00;99455.16;4992147;28;20038;-58
2021/12/21 03:00:25;;;;;;;4.63;2.83;;;;;;;-0.77;100.00;99451.66;4992536;28;20056;-59
2021/12/21 03:02:52;;;;;;;4.70;2.73;;;;;;;-0.78;100.00;99460.00;4991726;28;20058;-59
2021/12/21 03:05:18;;;;;;;3.43;2.30;;;;;;;-0.78;100.00;99463.38;4994929;28;20038;-58
2021/12/21 03:10:58;;;;;;;6.03;3.43;;;;;;;-0.97;100.00;99471.84;4978472;28;20672;-57
2021/12/21 03:16:07;;;;;;;5.70;3.20;;;;;;;-1.18;100.00;99478.53;4991549;28;20041;-59
2021/12/21 03:18:33;;;;;;;5.13;2.93;;;;;;;-1.10;100.00;99483.88;4993789;28;20473;-57
2021/12/21 03:20:58;;;;;;;6.07;3.60;;;;;;;-1.12;100.00;99476.28;4994574;28;20032;-58
2021/12/21 03:23:23;;;;;;;4.30;2.70;;;;;;;-1.09;100.00;99485.59;4992656;28;20037;-58
2021/12/21 03:25:49;;;;;;;6.23;2.70;;;;;;;-1.08;100.00;99474.75;4993843;28;20080;-59
2021/12/21 03:28:16;;;;;;;6.47;3.53;;;;;;;-1.15;100.00;99478.69;4997753;28;20556;-57
2021/12/21 03:30:43;;;;;;;4.77;3.27;;;;;;;-1.11;100.00;99483.03;5003421;28;20029;-59
2021/12/21 03:33:08;;;;;;;5.40;3.33;;;;;;;-1.15;100.00;99486.25;4995073;28;20511;-56
2021/12/21 03:35:33;;;;;;;6.13;2.97;;;;;;;-1.23;100.00;99480.00;4994119;28;20022;-57
2021/12/21 03:37:59;;;;;;;6.50;3.20;;;;;;;-1.22;100.00;99473.31;4998492;28;20457;-58
2021/12/21 03:40:24;;;;;;;4.37;3.03;;;;;;;-1.11;100.00;99488.06;4993749;28;20030;-58
2021/12/21 03:42:50;;;;;;;5.10;2.97;;;;;;;-1.12;100.00;99482.97;4993785;28;20162;-57
2021/12/21 03:45:16;;;;;;;6.80;3.40;;;;;;;-1.07;100.00;99482.38;4993453;28;20034;-57
2021/12/21 03:47:41;;;;;;;6.27;3.57;;;;;;;-1.10;100.00;99483.88;4999752;28;20018;-58
2021/12/21 03:50:16;;;;;;;6.40;3.70;;;;;;;-1.07;100.00;99491.56;4996264;28;20030;-57
2021/12/21 03:52:41;;;;;;;4.93;3.17;;;;;;;-1.11;100.00;99488.06;4995411;28;20042;-58
2021/12/21 03:55:07;;;;;;;7.37;3.77;;;;;;;-1.11;100.00;99485.56;4992666;28;20038;-58
2021/12/21 03:57:33;;;;;;;6.10;4.00;;;;;;;-1.02;100.00;99488.41;4996451;28;20108;-58
2021/12/21 03:59:58;;;;;;;4.97;3.10;;;;;;;-1.04;100.00;99481.63;4994772;28;20095;-58
2021/12/21 04:02:26;;;;;;;5.43;3.27;;;;;;;-1.02;100.00;99492.63;4992781;28;20069;-58
2021/12/21 04:04:53;;;;;;;8.67;4.10;;;;;;;-0.97;100.00;99481.91;4997195;28;20064;-58
2021/12/21 04:07:19;;;;;;;7.23;3.63;;;;;;;-1.05;100.00;99484.94;4999353;28;20033;-59
2021/12/21 04:09:45;;;;;;;4.43;2.93;;;;;;;-1.15;100.00;99478.69;4993498;28;20121;-58
2021/12/21 04:12:11;;;;;;;5.73;3.37;;;;;;;-1.05;100.00;99489.97;4993156;28;20048;-58
2021/12/21 04:14:37;;;;;;;6.07;3.43;;;;;;;-0.99;100.00;99487.69;4996219;28;20029;-57
2021/12/21 04:17:03;;;;;;;5.13;3.00;;;;;;;-0.99;100.00;99487.69;4996476;28;20048;-58
2021/12/21 04:19:28;;;;;;;7.70;3.43;;;;;;;-0.96;100.00;99497.88;4993570;28;20030;-59
2021/12/21 04:21:54;;;;;;;5.07;3.37;;;;;;;-1.01;100.00;99495.19;4992304;28;20081;-58
2021/12/21 04:24:21;;;;;;;3.73;2.50;;;;;;;-1.01;100.00;99485.13;4997437;28;20044;-59
2021/12/21 04:26:47;;;;;;;4.47;3.43;;;;;;;-1.12;100.00;99493.03;5001159;28;20408;-59
2021/12/21 04:29:13;;;;;;;9.23;4.20;;;;;;;-1.13;100.00;99489.66;4994430;28;20176;-58
2021/12/21 04:31:38;;;;;;;4.97;2.97;;;;;;;-1.09;100.00;99493.16;4991473;28;20018;-59
2021/12/21 04:34:04;;;;;;;6.27;3.77;;;;;;;-1.17;100.00;99495.34;4996954;28;20519;-58
2021/12/21 04:36:30;;;;;;;7.70;3.77;;;;;;;-1.19;100.00;99494.44;5001807;28;20037;-57
2021/12/21 04:38:58;;;;;;;6.30;2.93;;;;;;;-1.17;100.00;99502.03;4992644;28;20033;-60
2021/12/21 04:41:27;;;;;;;5.10;3.40;;;;;;;-1.20;100.00;99497.75;4993842;28;20104;-59
2021/12/21 04:43:54;;;;;;;6.13;3.27;;;;;;;-1.18;100.00;99493.63;4995255;28;20034;-59
2021/12/21 04:46:20;;;;;;;5.80;3.60;;;;;;;-1.22;100.00;99496.81;4993305;28;20035;-59
2021/12/21 04:48:46;;;;;;;5.80;3.70;;;;;;;-1.39;100.00;99493.59;4993238;28;20030;-58
2021/12/21 04:51:12;;;;;;;8.47;4.40;;;;;;;-1.48;100.00;99495.72;4999667;28;20053;-57
2021/12/21 04:53:37;;;;;;;6.83;3.73;;;;;;;-1.55;100.00;99490.41;5000342;28;20140;-59
2021/12/21 04:56:03;;;;;;;6.00;3.73;;;;;;;-1.58;100.00;99486.09;4995081;28;20038;-58
2021/12/21 04:58:29;;;;;;;6.90;3.80;;;;;;;-1.66;100.00;99494.97;4996246;28;20038;-57
2021/12/21 05:00:54;;;;;;;6.40;4.47;;;;;;;-1.69;100.00;99494.81;4996450;28;20499;-59
2021/12/21 05:03:20;;;;;;;5.57;3.83;;;;;;;-1.75;100.00;99496.22;4994362;28;20055;-59
2021/12/21 05:05:45;;;;;;;5.00;3.30;;;;;;;-1.82;100.00;99495.09;4995866;28;20022;-60
2021/12/21 05:08:12;;;;;;;7.10;3.63;;;;;;;-1.93;100.00;99497.16;4991897;28;20041;-58
2021/12/21 05:10:50;;;;;;;5.07;2.97;;;;;;;-2.00;100.00;99496.81;4992959;28;20311;-58
2021/12/21 05:13:18;;;;;;;6.23;3.80;;;;;;;-2.13;100.00;99497.06;4998310;28;20037;-57
2021/12/21 05:15:44;;;;;;;4.40;3.57;;;;;;;-2.19;100.00;99499.28;4996280;28;20034;-59
2021/12/21 05:18:13;;;;;;;4.27;3.40;;;;;;;-2.17;100.00;99501.09;4995450;28;20372;-59
2021/12/21 05:20:40;;;;;;;4.80;3.70;;;;;;;-2.26;100.00;99508.22;4995287;28;20034;-59
2021/12/21 05:23:07;;;;;;;4.83;3.53;;;;;;;-2.36;100.00;99504.41;4995934;28;20444;-58
2021/12/21 05:25:33;;;;;;;5.93;4.10;;;;;;;-2.38;100.00;99505.97;4999416;28;20034;-56
2021/12/21 05:27:58;;;;;;;4.73;3.43;;;;;;;-2.44;100.00;99507.34;4997920;28;20034;-58
2021/12/21 05:30:25;;;;;;;6.97;3.63;;;;;;;-2.38;100.00;99515.19;5000574;28;20137;-56
2021/12/21 05:32:50;;;;;;;5.93;4.33;;;;;;;-2.41;100.00;99512.50;5001239;28;20395;-58
2021/12/21 05:35:18;;;;;;;4.30;3.60;;;;;;;-2.45;100.00;99520.69;4998830;28;20057;-57
2021/12/21 05:37:44;;;;;;;5.23;3.83;;;;;;;-2.50;100.00;99529.66;4994384;28;20038;-58
2021/12/21 05:40:15;;;;;;;6.60;3.70;;;;;;;-2.60;100.00;99517.47;4997082;28;20512;-57
2021/12/21 05:42:45;;;;;;;5.23;4.03;;;;;;;-2.59;100.00;99522.59;4997865;28;20030;-56
2021/12/21 05:45:14;;;;;;;4.27;3.47;;;;;;;-2.57;100.00;99515.09;4995488;28;20069;-55
2021/12/21 05:47:39;;;;;;;6.33;3.40;;;;;;;-2.64;100.00;99519.00;4997616;28;20495;-57
2021/12/21 05:50:09;;;;;;;4.40;2.90;;;;;;;-2.60;100.00;99520.84;5002263;28;20035;-57
2021/12/21 05:52:36;;;;;;;3.63;2.90;;;;;;;-2.66;100.00;99515.53;4995074;28;20381;-57
2021/12/21 05:55:04;;;;;;;3.97;2.77;;;;;;;-2.68;100.00;99526.31;4992781;28;20530;-54
2021/12/21 05:57:29;;;;;;;4.97;3.57;;;;;;;-2.74;100.00;99526.88;4995012;28;20386;-57
2021/12/21 05:59:54;;;;;;;4.57;3.40;;;;;;;-2.70;100.00;99527.88;4999529;28;20165;-56
2021/12/21 06:02:21;;;;;;;4.37;3.30;;;;;;;-2.61;100.00;99530.81;5000006;28;20065;-57
2021/12/21 06:04:46;;;;;;;5.27;3.23;;;;;;;-2.59;100.00;99532.63;4993380;28;20057;-58
2021/12/21 06:07:12;;;;;;;2.53;2.33;;;;;;;-2.47;100.00;99527.31;4997885;28;20026;-56
2021/12/21 06:09:38;;;;;;;4.67;2.97;;;;;;;-2.48;100.00;99533.97;4999464;28;20031;-57
2021/12/21 06:23:15;;;;;;;10.38;4.47;;;;;;;-2.47;100.00;99530.69;4993107;28;20119;-59
2021/12/21 06:25:52;;;;;;;13.70;5.40;;;;;;;-2.51;100.00;99535.50;4994016;28;20038;-59
2021/12/21 06:28:17;;;;;;;11.73;5.53;;;;;;;-2.46;100.00;99541.59;4999786;28;20037;-58
2021/12/21 06:30:44;;;;;;;11.57;5.63;;;;;;;-2.50;100.00;99539.69;4994781;28;20065;-58
2021/12/21 06:33:09;;;;;;;11.33;5.57;;;;;;;-2.46;100.00;99534.88;4988234;28;20126;-56
2021/12/21 06:35:37;;;;;;;12.80;5.70;;;;;;;-2.51;100.00;99536.34;4989051;28;20504;-57
2021/12/21 06:38:03;;;;;;;12.10;5.03;;;;;;;-2.58;100.00;99540.97;4993001;28;20041;-58
2021/12/21 06:40:30;;;;;;;11.10;5.33;;;;;;;-2.62;100.00;99541.63;4991850;28;20064;-59
2021/12/21 06:42:56;;;;;;;12.23;4.77;;;;;;;-2.61;100.00;99544.22;4990708;28;20054;-59
2021/12/21 06:45:44;;;;;;;11.53;4.80;;;;;;;-2.58;100.00;99541.84;4990393;28;20723;-59
2021/12/21 06:51:58;;;;;;;9.80;5.63;;;;;;;-2.59;100.00;99547.69;4991764;28;20049;-59
2021/12/21 06:53:55;;;;;;;9.73;5.03;;;;;;;-2.54;100.00;99540.34;4984177;28;20045;-60
2021/12/21 06:56:23;;;;;;;11.53;6.20;;;;;;;-2.45;100.00;99546.66;4993866;28;20084;-59
2021/12/21 06:58:49;;;;;;;12.63;5.47;;;;;;;-2.45;100.00;99548.31;4992707;28;20108;-59
2021/12/21 07:01:15;;;;;;;16.93;7.37;;;;;;;-2.41;100.00;99557.69;4989495;28;20069;-59
2021/12/21 07:03:43;;;;;;;17.80;7.87;;;;;;;-2.42;100.00;99559.34;4990313;28;20497;-60
2021/12/21 07:06:10;;;;;;;22.17;9.57;;;;;;;-2.41;100.00;99557.69;4994310;28;20035;-60
2021/12/21 07:08:48;;;;;;;50.37;15.90;;;;;;;-2.21;100.00;99551.09;4993034;28;20029;-65
2021/12/21 07:19:14;;;;;;;9.33;4.60;;;;;;;-1.77;100.00;99555.59;4990224;28;20096;-60
2021/12/21 07:21:40;;;;;;;10.57;4.77;;;;;;;-1.75;100.00;99561.56;4988983;28;20037;-59
2021/12/21 07:24:05;;;;;;;11.50;4.63;;;;;;;-1.74;100.00;99556.59;4991931;28;20031;-59
2021/12/21 07:26:31;;;;;;;6.33;3.47;;;;;;;-1.65;100.00;99551.97;4991780;28;20473;-60
2021/12/21 07:28:56;;;;;;;6.63;3.80;;;;;;;-1.50;100.00;99559.34;4990432;28;20037;-58
2021/12/21 07:31:22;;;;;;;7.83;3.83;;;;;;;-1.43;100.00;99557.16;4989069;28;20030;-59
2021/12/21 07:33:47;;;;;;;7.17;3.37;;;;;;;-1.41;100.00;99553.06;4993715;28;20154;-58
2021/12/21 07:36:13;;;;;;;6.27;3.00;;;;;;;-1.41;100.00;99558.09;4992104;28;20346;-60
2021/12/21 07:38:38;;;;;;;4.30;3.03;;;;;;;-1.38;100.00;99557.34;4989548;28;20030;-60
2021/12/21 07:41:04;;;;;;;6.40;3.20;;;;;;;-1.18;100.00;99550.63;4989151;28;20221;-60
2021/12/21 07:43:30;;;;;;;3.77;2.77;;;;;;;-1.20;100.00;99548.06;4993406;28;20051;-60
2021/12/21 07:45:56;;;;;;;6.10;3.27;;;;;;;-0.96;100.00;99549.06;4992540;28;20061;-57
2021/12/21 07:48:22;;;;;;;7.33;4.60;;;;;;;-0.86;100.00;99540.25;4987461;28;20034;-58
2021/12/21 07:50:48;;;;;;;8.03;4.37;;;;;;;-0.81;100.00;99531.22;4990880;28;20820;-56
2021/12/21 07:53:16;;;;;;;6.83;4.20;;;;;;;-0.75;100.00;99533.13;4993549;28;20503;-59
2021/12/21 07:55:42;;;;;;;6.07;4.10;;;;;;;-0.67;100.00;99537.66;4993870;28;20030;-59
2021/12/21 07:58:08;;;;;;;6.67;4.00;;;;;;;-0.53;100.00;99526.47;4989987;28;20112;-58
2021/12/21 08:00:34;;;;;;;15.10;4.47;;;;;;;-0.35;99.13;99528.00;4991561;28;20034;-58
2021/12/21 08:03:00;;;;;;;7.40;4.03;;;;;;;-0.22;98.09;99525.13;4986808;28;20050;-59
2021/12/21 08:05:30;;;;;;;4.77;3.23;;;;;;;-0.23;98.52;99526.81;4989220;28;20042;-56
2021/12/21 08:08:05;;;;;;;7.47;3.57;;;;;;;-0.12;97.51;99528.06;4988367;28;20057;-58
2021/12/21 08:10:42;;;;;;;8.65;2.75;;;;;;;-0.29;98.23;99524.03;4990002;28;20488;-58
2021/12/21 08:13:08;;;;;;;5.87;3.23;;;;;;;-0.18;97.10;99527.84;4988982;28;20547;-59
2021/12/21 08:15:33;;;;;;;5.27;3.23;;;;;;;-0.04;95.77;99536.75;4990165;28;20019;-57
2021/12/21 08:17:59;;;;;;;6.40;3.47;;;;;;;0.06;94.27;99530.41;4990623;28;20156;-60
2021/12/21 08:20:26;;;;;;;7.53;4.30;;;;;;;0.19;93.73;99536.75;4989580;28;20125;-56
2021/12/21 08:22:53;;;;;;;7.90;4.17;;;;;;;0.10;93.89;99536.41;4987375;28;20575;-58
2021/12/21 08:25:24;;;;;;;5.37;2.83;;;;;;;0.22;92.68;99536.84;4993946;28;20345;-54
2021/12/21 08:27:50;;;;;;;6.47;3.90;;;;;;;0.42;91.20;99534.22;4992080;28;20421;-58
2021/12/21 08:30:15;;;;;;;6.17;3.97;;;;;;;0.40;89.90;99540.91;4987170;28;20029;-58
2021/12/21 08:32:40;;;;;;;7.27;4.03;;;;;;;0.47;89.38;99536.09;4989151;28;20398;-59
2021/12/21 08:35:06;;;;;;;7.17;3.43;;;;;;;0.60;89.64;99539.06;4991796;28;20121;-58
2021/12/21 08:37:34;;;;;;;6.67;4.03;;;;;;;0.79;88.44;99538.03;4979113;28;20042;-59
2021/12/21 08:39:59;;;;;;;9.63;3.87;;;;;;;0.93;85.27;99543.56;4969011;28;20060;-59
2021/12/21 08:42:26;;;;;;;7.27;4.37;;;;;;;0.95;85.38;99541.94;4967595;28;20045;-55
2021/12/21 08:44:51;;;;;;;6.10;3.37;;;;;;;1.12;84.82;99541.69;4971768;28;20038;-57
2021/12/21 08:47:17;;;;;;;7.10;4.07;;;;;;;1.06;83.96;99548.22;4972587;28;20096;-57
2021/12/21 08:49:42;;;;;;;6.73;3.50;;;;;;;1.17;82.20;99539.31;4969802;28;20057;-56
2021/12/21 08:52:08;;;;;;;9.60;3.67;;;;;;;1.33;82.08;99551.63;4969585;28;20039;-56
2021/12/21 08:54:33;;;;;;;9.87;4.27;;;;;;;1.35;81.41;99550.03;4972485;28;20185;-58
2021/12/21 08:57:00;;;;;;;7.53;3.63;;;;;;;1.42;76.72;99554.47;4973277;28;20038;-57
2021/12/21 08:59:26;;;;;;;8.80;4.47;;;;;;;1.57;75.99;99546.50;4969816;28;20034;-62
2021/12/21 09:01:53;;;;;;;7.87;4.03;;;;;;;1.52;74.59;99558.13;4968448;28;20073;-60
2021/12/21 09:04:20;;;;;;;7.67;3.33;;;;;;;1.65;72.11;99557.72;4969393;28;20376;-56
2021/12/21 09:06:45;;;;;;;10.80;4.30;;;;;;;1.68;72.59;99552.75;4969822;28;20030;-59
2021/12/21 09:09:10;;;;;;;7.27;3.70;;;;;;;1.75;73.85;99549.59;4972717;28;20786;-56
2021/12/21 09:11:38;;;;;;;7.43;3.77;;;;;;;1.72;73.13;99546.97;4972282;28;20077;-58
2021/12/21 09:14:04;;;;;;;8.13;4.27;;;;;;;1.59;72.56;99545.75;4970081;28;20259;-57
2021/12/21 09:16:29;;;;;;;7.73;3.97;;;;;;;1.93;70.78;99541.69;4969101;28;20630;-58
2021/12/21 09:18:54;;;;;;;5.97;3.40;;;;;;;1.93;70.03;99549.28;4973114;28;20026;-58
2021/12/21 09:21:20;;;;;;;10.73;3.77;;;;;;;1.94;69.33;99549.34;4971450;28;20539;-59
2021/12/21 09:23:45;;;;;;;3.23;2.33;;;;;;;2.07;69.28;99542.97;4956067;28;20035;-58
2021/12/21 09:26:11;;;;;;;4.83;2.93;;;;;;;2.07;67.96;99537.91;4968504;28;20056;-58
2021/12/21 09:28:36;;;;;;;1.60;1.50;;;;;;;2.08;66.04;99542.19;4971067;28;20153;-59
2021/12/21 09:31:01;;;;;;;1.87;1.63;;;;;;;2.09;65.88;99536.28;4968447;28;20050;-59
2021/12/21 09:33:27;;;;;;;2.20;2.00;;;;;;;2.25;65.43;99534.22;4969424;28;20062;-58
2021/12/21 09:35:52;;;;;;;3.57;1.50;;;;;;;2.37;64.00;99530.34;4972468;28;20045;-58
2021/12/21 09:38:18;;;;;;;2.20;1.87;;;;;;;2.49;62.46;99525.63;4970093;28;20473;-56
2021/12/21 09:40:44;;;;;;;5.03;1.70;;;;;;;2.27;61.37;99529.22;4966899;28;20031;-55
2021/12/21 09:43:11;;;;;;;5.07;1.40;;;;;;;2.36;60.96;99521.91;4969023;28;20050;-59
2021/12/21 09:45:38;;;;;;;1.27;1.17;;;;;;;2.43;59.65;99515.31;4972287;28;20018;-60
2021/12/21 09:48:04;;;;;;;1.87;1.67;;;;;;;2.61;59.05;99519.22;4970666;28;20038;-60
2021/12/21 09:50:30;;;;;;;2.70;1.47;;;;;;;2.58;57.52;99506.50;4967105;28;20499;-59
2021/12/21 09:52:56;;;;;;;1.40;1.13;;;;;;;2.76;56.58;99514.53;4970984;28;20043;-59
2021/12/21 09:55:22;;;;;;;1.63;1.47;;;;;;;2.75;55.16;99514.53;4971456;28;20035;-58
2021/12/21 09:57:49;;;;;;;7.37;3.10;;;;;;;2.81;54.70;99511.28;4968889;28;20455;-59
2021/12/21 10:00:21;;;;;;;10.13;4.50;;;;;;;2.86;55.64;99513.13;4966492;28;20624;-59
2021/12/21 10:02:47;;;;;;;31.97;29.27;;;;;;;2.96;55.38;99512.53;4967850;28;20137;-60
2021/12/21 10:05:18;;;;;;;6.80;4.20;;;;;;;3.05;55.72;99507.72;4969785;28;20446;-60
2021/12/21 10:07:43;;;;;;;7.47;3.37;;;;;;;3.09;55.14;99508.63;4970406;28;20034;-62
2021/12/21 10:10:16;;;;;;;7.90;2.93;;;;;;;3.31;54.44;99508.31;4969046;28;20532;-59
2021/12/21 10:12:44;;;;;;;6.23;3.57;;;;;;;3.21;53.39;99503.88;4973277;28;20031;-58
2021/12/21 10:15:15;;;;;;;5.27;3.07;;;;;;;3.31;53.41;99499.88;4976666;28;20484;-57
2021/12/21 10:17:53;;;;;;;7.07;3.27;;;;;;;3.43;52.86;99495.94;4973400;28;20606;-58
2021/12/21 10:20:36;;;;;;;6.40;3.17;;;;;;;3.79;53.12;99497.56;4972616;28;20663;-59
2021/12/21 10:23:15;;;;;;;4.07;2.67;;;;;;;3.80;53.37;99495.09;4978505;28;20194;-59
2021/12/21 10:25:44;;;;;;;6.40;3.53;;;;;;;3.97;52.14;99490.38;4974217;28;20039;-58
2021/12/21 10:28:09;;;;;;;6.57;2.90;;;;;;;3.88;52.41;99493.56;4970202;28;20092;-58
2021/12/21 10:30:46;;;;;;;6.17;2.67;;;;;;;3.37;51.97;99483.13;4970807;28;20027;-59
2021/12/21 10:33:12;;;;;;;10.07;3.50;;;;;;;3.68;52.11;99477.94;4973802;28;20473;-59
2021/12/21 10:35:37;;;;;;;5.60;3.50;;;;;;;3.98;51.15;99479.41;4972235;28;20034;-57
2021/12/21 10:38:04;;;;;;;9.03;5.03;;;;;;;4.02;50.56;99476.09;4974385;28;20026;-60
2021/12/21 10:40:30;;;;;;;8.63;3.67;;;;;;;3.92;50.03;99481.81;4972384;28;20397;-56
2021/12/21 10:42:57;;;;;;;5.07;2.80;;;;;;;3.73;48.98;99484.78;4972321;28;20060;-58
2021/12/21 10:45:35;;;;;;;8.67;4.53;;;;;;;3.62;49.67;99467.66;4972552;28;20493;-60
2021/12/21 10:48:04;;;;;;;7.70;4.33;;;;;;;3.63;49.63;99469.38;4972858;28;20030;-59
2021/12/21 10:50:33;;;;;;;11.17;6.00;;;;;;;4.00;48.89;99465.06;4974001;28;20038;-59
2021/12/21 10:53:00;;;;;;;12.23;11.07;;;;;;;3.86;48.43;99462.22;4969540;28;20607;-60
2021/12/21 10:55:34;;;;;;;9.07;6.80;;;;;;;3.92;47.56;99464.03;4971937;28;20089;-60
2021/12/21 10:58:07;;;;;;;9.63;6.40;;;;;;;4.34;46.91;99448.81;4973433;28;20402;-58
2021/12/21 11:00:34;;;;;;;8.97;6.57;;;;;;;4.68;46.00;99458.75;4971689;28;20414;-60
2021/12/21 11:03:00;;;;;;;9.23;5.47;;;;;;;4.92;46.20;99454.09;4971706;28;20053;-59
2021/12/21 11:05:27;;;;;;;7.70;4.67;;;;;;;4.90;46.29;99453.22;4975019;28;20030;-60
2021/12/21 11:08:16;;;;;;;11.37;5.23;;;;;;;4.87;46.22;99445.56;4976398;28;20100;-59
2021/12/21 11:10:48;;;;;;;8.00;6.00;;;;;;;4.86;46.08;99445.53;4970378;28;20119;-59
2021/12/21 11:13:15;;;;;;;12.63;7.37;;;;;;;4.53;46.09;99454.28;4973232;28;20034;-59
2021/12/21 11:15:44;;;;;;;11.80;9.37;;;;;;;4.16;46.94;99451.84;4972110;28;20027;-60
2021/12/21 11:18:16;;;;;;;12.77;11.57;;;;;;;4.25;46.70;99446.09;4969713;28;20038;-61
2021/12/21 11:20:44;;;;;;;9.87;8.93;;;;;;;4.43;46.54;99439.69;4973095;28;20551;-60
2021/12/21 11:23:15;;;;;;;10.97;7.60;;;;;;;4.56;46.40;99435.69;4972941;28;20492;-60
2021/12/21 11:25:42;;;;;;;12.03;7.63;;;;;;;4.85;45.72;99434.50;4973624;28;20125;-59
2021/12/21 11:28:12;;;;;;;12.43;10.27;;;;;;;4.77;45.33;99425.03;4975597;28;20034;-60
2021/12/21 11:30:38;;;;;;;12.03;10.67;;;;;;;5.58;44.56;99439.84;4972951;28;20708;-58
2021/12/21 11:33:06;;;;;;;10.37;9.03;;;;;;;5.63;43.63;99435.69;4973708;28;20042;-61
2021/12/21 11:38:06;;;;;;;9.83;9.03;;;;;;;6.02;43.61;99417.56;4972013;28;20037;-60
2021/12/21 11:40:39;;;;;;;12.15;10.82;;;;;;;5.91;43.86;99414.88;4970910;28;20026;-59
2021/12/21 11:43:30;;;;;;;15.13;14.07;;;;;;;5.54;44.19;99413.53;4971291;28;20455;-60
2021/12/21 11:46:02;;;;;;;10.97;6.20;;;;;;;5.41;44.82;99411.63;4973479;28;20416;-55
2021/12/21 11:48:52;;;;;;;19.17;17.87;;;;;;;5.25;45.46;99402.94;4972631;28;20037;-58
2021/12/21 11:51:25;;;;;;;11.53;8.93;;;;;;;4.97;45.65;99406.75;4970417;28;20045;-59
2021/12/21 11:53:52;;;;;;;13.00;11.80;;;;;;;5.05;46.07;99394.16;4958435;28;20153;-57
2021/12/21 11:56:21;;;;;;;22.57;21.13;;;;;;;4.98;45.34;99397.44;4971997;28;20121;-56
2021/12/21 11:58:51;;;;;;;20.87;19.27;;;;;;;5.08;45.13;99394.22;4970729;28;20042;-58
2021/12/21 12:01:26;;;;;;;20.43;18.97;;;;;;;5.20;44.44;99394.41;4972502;28;20046;-57
2021/12/21 12:03:56;;;;;;;11.80;10.73;;;;;;;5.38;44.55;99388.72;4976565;28;20198;-58
2021/12/21 12:06:22;;;;;;;14.23;12.87;;;;;;;5.45;44.42;99386.28;4972335;28;20471;-57
2021/12/21 12:08:52;;;;;;;11.20;10.10;;;;;;;5.48;44.67;99385.44;4970982;28;20031;-58
2021/12/21 12:11:35;;;;;;;10.77;9.43;;;;;;;5.31;43.77;99387.75;4973749;28;20046;-59
2021/12/21 12:14:08;;;;;;;16.17;15.03;;;;;;;5.30;43.83;99383.53;4975533;28;20038;-57
2021/12/21 12:16:51;;;;;;;11.67;10.57;;;;;;;4.97;44.67;99366.09;4972815;28;20037;-59
2021/12/21 12:19:20;;;;;;;9.53;8.00;;;;;;;5.02;44.31;99382.28;4968916;28;20029;-59
2021/12/21 12:21:55;;;;;;;10.03;7.57;;;;;;;4.85;45.20;99378.63;4970881;28;20065;-60
2021/12/21 12:24:23;;;;;;;11.70;10.47;;;;;;;4.93;44.90;99378.72;4970980;28;20026;-59
2021/12/21 12:27:01;;;;;;;17.83;16.20;;;;;;;4.81;44.82;99376.00;4974465;28;20078;-59
2021/12/21 12:29:27;;;;;;;23.67;21.77;;;;;;;4.72;44.91;99373.31;4954737;28;20046;-59
2021/12/21 12:32:05;;;;;;;6.63;5.23;;;;;;;4.65;45.54;99376.59;4972622;28;20038;-59
2021/12/21 12:34:35;;;;;;;12.07;5.27;;;;;;;4.63;45.31;99373.16;4974407;28;20105;-59